N12KBM KVNY-KLAX
Flight info
| Callsign | N12KBM |
|---|---|
| Flight time | 0h 18m |
| Altitude | VFR/035 |
| Route | VFR N |
| Aircraft | P28A/L-DOV/C |
Departure
| Time | 2026-05-04 01:32 |
|---|---|
| Airport | Van Nuys Airport (KVNY) |
Arrival
| Time | 2026-05-04 01:50 |
|---|---|
| Airport | Los Angeles International Airport (KLAX) |
| Time | Latitude | Longitude | Altitude | Speed | Heading |
|---|---|---|---|---|---|
| 2026-05-04 01:23 | 34.20254 | -118.49150 | 758 ft | 0 kts | 76° |
| 2026-05-04 01:27 | 34.20255 | -118.49129 | 755 ft | 7 kts | 89° |
| 2026-05-04 01:28 | 34.20255 | -118.49125 | 756 ft | 0 kts | 88° |
| 2026-05-04 01:28 | 34.20286 | -118.49090 | 762 ft | 13 kts | 15° |
| 2026-05-04 01:29 | 34.20364 | -118.49097 | 766 ft | 11 kts | 352° |
| 2026-05-04 01:29 | 34.20453 | -118.49102 | 770 ft | 14 kts | 350° |
| 2026-05-04 01:29 | 34.20562 | -118.49113 | 775 ft | 19 kts | 356° |
| 2026-05-04 01:29 | 34.20711 | -118.49134 | 780 ft | 21 kts | 356° |
| 2026-05-04 01:30 | 34.20844 | -118.49144 | 786 ft | 18 kts | 351° |
| 2026-05-04 01:30 | 34.20955 | -118.49155 | 787 ft | 14 kts | 0° |
| 2026-05-04 01:30 | 34.21011 | -118.49136 | 787 ft | 0 kts | 62° |
| 2026-05-04 01:31 | 34.21016 | -118.49065 | 788 ft | 21 kts | 87° |
| 2026-05-04 01:31 | 34.20927 | -118.49016 | 786 ft | 37 kts | 178° |
| 2026-05-04 01:31 | 34.20453 | -118.48997 | 769 ft | 97 kts | 179° |
| 2026-05-04 01:31 | 34.19791 | -118.48929 | 1138 ft | 92 kts | 173° |
| 2026-05-04 01:32 | 34.19141 | -118.48842 | 1458 ft | 96 kts | 175° |
| 2026-05-04 01:32 | 34.18411 | -118.48749 | 1637 ft | 111 kts | 177° |
| 2026-05-04 01:32 | 34.17644 | -118.48696 | 1973 ft | 110 kts | 177° |
| 2026-05-04 01:32 | 34.16882 | -118.48578 | 2294 ft | 110 kts | 169° |
| 2026-05-04 01:33 | 34.16169 | -118.48232 | 2581 ft | 112 kts | 148° |
| 2026-05-04 01:33 | 34.15533 | -118.47663 | 2826 ft | 116 kts | 138° |
| 2026-05-04 01:33 | 34.14916 | -118.46990 | 3023 ft | 124 kts | 139° |
| 2026-05-04 01:33 | 34.14241 | -118.46302 | 3203 ft | 130 kts | 141° |
| 2026-05-04 01:34 | 34.13498 | -118.45678 | 3369 ft | 132 kts | 149° |
| 2026-05-04 01:34 | 34.12685 | -118.45124 | 3510 ft | 136 kts | 153° |
| 2026-05-04 01:34 | 34.12106 | -118.44768 | 3552 ft | 141 kts | 153° |
| 2026-05-04 01:34 | 34.11204 | -118.44212 | 3505 ft | 150 kts | 153° |
| 2026-05-04 01:35 | 34.10427 | -118.43376 | 3510 ft | 149 kts | 132° |
| 2026-05-04 01:35 | 34.09733 | -118.42494 | 3467 ft | 139 kts | 135° |
| 2026-05-04 01:35 | 34.09081 | -118.41638 | 3169 ft | 127 kts | 126° |
| 2026-05-04 01:35 | 34.08647 | -118.40822 | 3381 ft | 112 kts | 123° |
| 2026-05-04 01:36 | 34.08352 | -118.39987 | 3710 ft | 104 kts | 102° |
| 2026-05-04 01:36 | 34.08269 | -118.39092 | 3916 ft | 112 kts | 96° |
| 2026-05-04 01:36 | 34.08179 | -118.38195 | 4271 ft | 104 kts | 94° |
| 2026-05-04 01:36 | 34.08072 | -118.37328 | 4546 ft | 104 kts | 102° |
| 2026-05-04 01:37 | 34.07926 | -118.36495 | 4905 ft | 97 kts | 99° |
| 2026-05-04 01:37 | 34.07817 | -118.35665 | 5158 ft | 102 kts | 97° |
| 2026-05-04 01:37 | 34.07742 | -118.34812 | 5417 ft | 104 kts | 97° |
| 2026-05-04 01:37 | 34.07614 | -118.33903 | 5582 ft | 114 kts | 103° |
| 2026-05-04 01:38 | 34.07416 | -118.32970 | 5798 ft | 118 kts | 107° |
| 2026-05-04 01:38 | 34.07187 | -118.31983 | 5914 ft | 125 kts | 99° |
| 2026-05-04 01:38 | 34.07058 | -118.30931 | 5984 ft | 136 kts | 99° |
| 2026-05-04 01:38 | 34.06874 | -118.29716 | 5754 ft | 155 kts | 102° |
| 2026-05-04 01:39 | 34.06638 | -118.28457 | 5704 ft | 152 kts | 104° |
| 2026-05-04 01:39 | 34.06350 | -118.27228 | 5602 ft | 156 kts | 102° |
| 2026-05-04 01:39 | 34.06113 | -118.25953 | 5619 ft | 149 kts | 98° |
| 2026-05-04 01:39 | 34.05890 | -118.24716 | 5458 ft | 159 kts | 105° |
| 2026-05-04 01:40 | 34.05666 | -118.23377 | 5240 ft | 164 kts | 101° |
| 2026-05-04 01:40 | 34.05450 | -118.22058 | 5192 ft | 159 kts | 102° |
| 2026-05-04 01:40 | 34.05202 | -118.20738 | 5037 ft | 163 kts | 105° |
| 2026-05-04 01:40 | 34.04957 | -118.19417 | 4999 ft | 154 kts | 98° |
| 2026-05-04 01:41 | 34.04787 | -118.18163 | 4974 ft | 156 kts | 101° |
| 2026-05-04 01:41 | 34.04507 | -118.16849 | 4676 ft | 167 kts | 112° |
| 2026-05-04 01:41 | 34.03837 | -118.15791 | 4727 ft | 152 kts | 147° |
| 2026-05-04 01:41 | 34.02875 | -118.15325 | 4689 ft | 152 kts | 165° |
| 2026-05-04 01:42 | 34.01789 | -118.14955 | 4266 ft | 169 kts | 165° |
| 2026-05-04 01:42 | 34.00695 | -118.14538 | 3927 ft | 150 kts | 163° |
| 2026-05-04 01:42 | 33.99889 | -118.14157 | 3971 ft | 97 kts | 157° |
| 2026-05-04 01:42 | 33.99287 | -118.13893 | 3836 ft | 86 kts | 164° |
| 2026-05-04 01:43 | 33.98746 | -118.13734 | 3486 ft | 100 kts | 169° |
| 2026-05-04 01:43 | 33.98047 | -118.13564 | 3174 ft | 103 kts | 172° |
| 2026-05-04 01:43 | 33.97358 | -118.13514 | 2961 ft | 96 kts | 179° |
| 2026-05-04 01:43 | 33.96683 | -118.13546 | 2582 ft | 104 kts | 191° |
| 2026-05-04 01:44 | 33.95982 | -118.13978 | 2288 ft | 115 kts | 222° |
| 2026-05-04 01:44 | 33.95691 | -118.14763 | 2267 ft | 103 kts | 273° |
| 2026-05-04 01:44 | 33.95798 | -118.15671 | 2009 ft | 116 kts | 279° |
| 2026-05-04 01:44 | 33.95890 | -118.16619 | 1923 ft | 109 kts | 275° |
| 2026-05-04 01:45 | 33.95961 | -118.17480 | 1907 ft | 103 kts | 277° |
| 2026-05-04 01:45 | 33.96081 | -118.18392 | 1803 ft | 117 kts | 278° |
| 2026-05-04 01:45 | 33.95975 | -118.20426 | 2155 ft | 127 kts | 256° |
| 2026-05-04 01:46 | 33.95711 | -118.21458 | 2307 ft | 130 kts | 253° |
| 2026-05-04 01:46 | 33.95465 | -118.22509 | 2487 ft | 131 kts | 255° |
| 2026-05-04 01:46 | 33.95198 | -118.23585 | 2540 ft | 138 kts | 245° |
| 2026-05-04 01:46 | 33.94792 | -118.24618 | 2574 ft | 137 kts | 255° |
| 2026-05-04 01:47 | 33.94667 | -118.25798 | 2478 ft | 148 kts | 265° |
| 2026-05-04 01:47 | 33.94588 | -118.27094 | 2221 ft | 161 kts | 266° |
| 2026-05-04 01:47 | 33.94544 | -118.28450 | 2011 ft | 162 kts | 269° |
| 2026-05-04 01:47 | 33.94508 | -118.29787 | 1925 ft | 160 kts | 268° |
| 2026-05-04 01:48 | 33.94444 | -118.31142 | 1677 ft | 166 kts | 266° |
| 2026-05-04 01:48 | 33.94359 | -118.32508 | 1337 ft | 151 kts | 265° |
| 2026-05-04 01:48 | 33.94233 | -118.33757 | 1159 ft | 147 kts | 262° |
| 2026-05-04 01:48 | 33.94097 | -118.34913 | 1028 ft | 132 kts | 262° |
| 2026-05-04 01:49 | 33.93982 | -118.35975 | 732 ft | 127 kts | 263° |
| 2026-05-04 01:49 | 33.93869 | -118.36988 | 537 ft | 114 kts | 262° |
| 2026-05-04 01:49 | 33.93775 | -118.37892 | 271 ft | 105 kts | 263° |
| 2026-05-04 01:49 | 33.93687 | -118.38723 | 137 ft | 92 kts | 262° |
| 2026-05-04 01:50 | 33.93619 | -118.39390 | 121 ft | 66 kts | 262° |
| 2026-05-04 01:50 | 33.93584 | -118.39760 | 120 ft | 27 kts | 270° |
| 2026-05-04 01:50 | 33.93533 | -118.40090 | 119 ft | 43 kts | 243° |
| 2026-05-04 01:50 | 33.93482 | -118.40155 | 120 ft | 12 kts | 225° |
| 2026-05-04 01:51 | 33.93456 | -118.40184 | 119 ft | 0 kts | 222° |
| 2026-05-04 01:51 | 33.93399 | -118.40190 | 120 ft | 12 kts | 164° |
| 2026-05-04 01:52 | 33.93352 | -118.40140 | 120 ft | 0 kts | 174° |
| 2026-05-04 01:52 | 33.67360 | -117.86566 | 120 ft | 1 kts | 60° |